SBCY/CGB METAR and TAF weather

Enter ICAO airport designator
Station Type Date Time Source
SBCY METAR 2022/12/08 13:00 UTC NOAA

SBCY 081300Z 29007KT CAVOK 29/22 Q1011


Station Type Date Time Source
SBCY Decoded METAR 2022/12/08 13:00 UTC NOAA

Cuiaba Aeroporto , Brazil (SBCY) 15-39S 056-06W 182M
Dec 08, 2022 - 08:00 AM EST / 2022.12.08 1300 UTC
Wind: from the WNW (290 degrees) at 8 MPH (7 KT):0
Visibility: greater than 7 mile(s):0
Temperature: 84 F (29 C)
Dew Point: 71 F (22 C)
Relative Humidity: 65%
Pressure (altimeter): 29.85 in. Hg (1011 hPa)
ob: SBCY 081300Z 29007KT CAVOK 29/22 Q1011
cycle: 13

Station Type Date Time Source
SBCY TAF 2022/12/08 12:12 UTC NOAA

TAF SBCY 080908Z 0812/0912 30006KT 8000 SCT020 TX32/0818Z TN24/0909Z
BECMG 0812/0814 33008KT
BECMG 0815/0818 SCT020 FEW025TCU
TEMPO 0818/0821 TS SCT020 FEW025CB
BECMG 0822/0824 36005KT FEW020
BECMG 0902/0905 32005KT
RMK PHC

Example: see airport list